sensor_id;sensor_type;location;lat;lon;timestamp;temperature;humidity
21312;DHT22;18076;52.154;10.570;2024-03-06T08:16:15;5.70;99.90
21312;DHT22;18076;52.154;10.570;2024-03-06T08:18:41;5.70;99.90
21312;DHT22;18076;52.154;10.570;2024-03-06T08:21:06;5.80;99.90
21312;DHT22;18076;52.154;10.570;2024-03-06T08:23:32;5.80;99.90
21312;DHT22;18076;52.154;10.570;2024-03-06T08:25:58;5.80;99.90
21312;DHT22;18076;52.154;10.570;2024-03-06T08:28:25;5.90;99.90
21312;DHT22;18076;52.154;10.570;2024-03-06T08:30:50;5.90;99.90
21312;DHT22;18076;52.154;10.570;2024-03-06T08:33:17;5.80;99.90
21312;DHT22;18076;52.154;10.570;2024-03-06T08:35:43;5.80;99.90
21312;DHT22;18076;52.154;10.570;2024-03-06T08:38:08;5.80;99.90
21312;DHT22;18076;52.154;10.570;2024-03-06T08:40:34;5.80;99.90
21312;DHT22;18076;52.154;10.570;2024-03-06T08:42:59;5.80;99.90
21312;DHT22;18076;52.154;10.570;2024-03-06T08:45:25;5.80;99.90
21312;DHT22;18076;52.154;10.570;2024-03-06T08:47:51;5.70;99.90
21312;DHT22;18076;52.154;10.570;2024-03-06T08:50:19;5.60;99.90
21312;DHT22;18076;52.154;10.570;2024-03-06T08:52:44;5.70;99.90
21312;DHT22;18076;52.154;10.570;2024-03-06T08:55:10;5.70;99.90
21312;DHT22;18076;52.154;10.570;2024-03-06T08:57:36;5.80;99.90
21312;DHT22;18076;52.154;10.570;2024-03-06T09:00:02;5.80;99.90
21312;DHT22;18076;52.154;10.570;2024-03-06T09:02:28;5.80;99.90
21312;DHT22;18076;52.154;10.570;2024-03-06T09:04:53;5.90;99.90
21312;DHT22;18076;52.154;10.570;2024-03-06T09:07:19;6.00;99.90
21312;DHT22;18076;52.154;10.570;2024-03-06T09:09:45;6.00;99.90
21312;DHT22;18076;52.154;10.570;2024-03-06T09:12:11;6.20;99.90
21312;DHT22;18076;52.154;10.570;2024-03-06T09:14:37;6.20;99.90
21312;DHT22;18076;52.154;10.570;2024-03-06T09:17:03;6.30;99.90
21312;DHT22;18076;52.154;10.570;2024-03-06T09:19:30;6.50;99.90
21312;DHT22;18076;52.154;10.570;2024-03-06T09:21:56;6.60;99.90
21312;DHT22;18076;52.154;10.570;2024-03-06T09:24:22;6.80;99.90
21312;DHT22;18076;52.154;10.570;2024-03-06T09:26:48;7.10;99.90
21312;DHT22;18076;52.154;10.570;2024-03-06T09:29:14;7.30;99.90
21312;DHT22;18076;52.154;10.570;2024-03-06T09:31:40;7.30;99.90
21312;DHT22;18076;52.154;10.570;2024-03-06T09:34:05;7.50;99.90
21312;DHT22;18076;52.154;10.570;2024-03-06T09:36:31;7.60;99.90
21312;DHT22;18076;52.154;10.570;2024-03-06T09:38:58;7.80;99.90
21312;DHT22;18076;52.154;10.570;2024-03-06T09:41:24;8.10;99.90
21312;DHT22;18076;52.154;10.570;2024-03-06T09:43:50;7.90;99.90
21312;DHT22;18076;52.154;10.570;2024-03-06T09:46:15;7.90;99.90
21312;DHT22;18076;52.154;10.570;2024-03-06T09:48:46;8.10;99.90
21312;DHT22;18076;52.154;10.570;2024-03-06T09:51:12;8.30;99.90
21312;DHT22;18076;52.154;10.570;2024-03-06T09:53:41;8.50;99.90
21312;DHT22;18076;52.154;10.570;2024-03-06T09:56:08;8.50;99.90
21312;DHT22;18076;52.154;10.570;2024-03-06T09:58:37;8.40;99.90
21312;DHT22;18076;52.154;10.570;2024-03-06T10:01:03;8.20;99.90
21312;DHT22;18076;52.154;10.570;2024-03-06T10:03:32;8.20;99.90
21312;DHT22;18076;52.154;10.570;2024-03-06T10:05:58;8.20;99.90
21312;DHT22;18076;52.154;10.570;2024-03-06T10:08:24;8.20;99.90
21312;DHT22;18076;52.154;10.570;2024-03-06T10:10:53;8.40;99.90
21312;DHT22;18076;52.154;10.570;2024-03-06T10:13:22;8.60;99.90
21312;DHT22;18076;52.154;10.570;2024-03-06T10:16:01;8.70;99.90
21312;DHT22;18076;52.154;10.570;2024-03-06T10:18:28;8.90;99.90
21312;DHT22;18076;52.154;10.570;2024-03-06T10:20:54;9.00;99.90
21312;DHT22;18076;52.154;10.570;2024-03-06T10:23:20;8.90;99.90
21312;DHT22;18076;52.154;10.570;2024-03-06T10:25:48;9.20;99.90
21312;DHT22;18076;52.154;10.570;2024-03-06T10:28:20;9.30;99.90
21312;DHT22;18076;52.154;10.570;2024-03-06T10:30:47;9.20;99.90
21312;DHT22;18076;52.154;10.570;2024-03-06T10:33:13;9.00;99.90
21312;DHT22;18076;52.154;10.570;2024-03-06T10:35:42;8.90;99.90
21312;DHT22;18076;52.154;10.570;2024-03-06T10:38:09;8.70;99.90
21312;DHT22;18076;52.154;10.570;2024-03-06T10:40:37;8.60;99.90
21312;DHT22;18076;52.154;10.570;2024-03-06T10:43:03;8.60;99.90
21312;DHT22;18076;52.154;10.570;2024-03-06T10:45:47;8.70;99.90
21312;DHT22;18076;52.154;10.570;2024-03-06T10:48:13;8.90;99.90
21312;DHT22;18076;52.154;10.570;2024-03-06T10:50:40;9.40;99.90
21312;DHT22;18076;52.154;10.570;2024-03-06T10:53:13;10.00;99.90
21312;DHT22;18076;52.154;10.570;2024-03-06T10:55:39;10.00;99.90
21312;DHT22;18076;52.154;10.570;2024-03-06T10:58:06;9.80;99.90
21312;DHT22;18076;52.154;10.570;2024-03-06T11:00:35;10.00;99.90
21312;DHT22;18076;52.154;10.570;2024-03-06T11:03:04;10.20;99.90
21312;DHT22;18076;52.154;10.570;2024-03-06T11:05:34;10.40;99.90
21312;DHT22;18076;52.154;10.570;2024-03-06T11:07:59;10.50;99.90
21312;DHT22;18076;52.154;10.570;2024-03-06T11:10:32;10.70;99.90
21312;DHT22;18076;52.154;10.570;2024-03-06T11:12:58;10.60;99.90
21312;DHT22;18076;52.154;10.570;2024-03-06T11:15:37;10.60;99.90
21312;DHT22;18076;52.154;10.570;2024-03-06T11:20:47;10.60;99.90
21312;DHT22;18076;52.154;10.570;2024-03-06T11:23:13;10.80;99.90
21312;DHT22;18076;52.154;10.570;2024-03-06T11:28:21;11.00;99.90
21312;DHT22;18076;52.154;10.570;2024-03-06T11:30:48;11.50;99.90
21312;DHT22;18076;52.154;10.570;2024-03-06T11:33:14;11.80;99.90
21312;DHT22;18076;52.154;10.570;2024-03-06T11:36:12;11.50;99.90
21312;DHT22;18076;52.154;10.570;2024-03-06T11:38:30;11.40;99.90
21312;DHT22;18076;52.154;10.570;2024-03-06T11:40:55;11.10;99.90
21312;DHT22;18076;52.154;10.570;2024-03-06T11:43:27;11.30;99.90
21312;DHT22;18076;52.154;10.570;2024-03-06T11:46:07;11.40;99.90
21312;DHT22;18076;52.154;10.570;2024-03-06T11:48:39;11.80;99.90
21312;DHT22;18076;52.154;10.570;2024-03-06T11:51:05;12.20;99.90
21312;DHT22;18076;52.154;10.570;2024-03-06T11:53:33;12.50;99.90
21312;DHT22;18076;52.154;10.570;2024-03-06T11:56:01;12.60;99.90
21312;DHT22;18076;52.154;10.570;2024-03-06T11:58:27;13.00;99.90
21312;DHT22;18076;52.154;10.570;2024-03-06T12:00:53;13.00;99.90
21312;DHT22;18076;52.154;10.570;2024-03-06T12:03:19;13.20;99.90
21312;DHT22;18076;52.154;10.570;2024-03-06T12:05:45;13.60;99.90
21312;DHT22;18076;52.154;10.570;2024-03-06T12:08:11;13.60;99.90
21312;DHT22;18076;52.154;10.570;2024-03-06T12:10:37;13.20;99.90
21312;DHT22;18076;52.154;10.570;2024-03-06T12:13:03;13.00;99.90
21312;DHT22;18076;52.154;10.570;2024-03-06T12:15:30;13.20;99.90
21312;DHT22;18076;52.154;10.570;2024-03-06T12:18:01;13.30;99.90
21312;DHT22;18076;52.154;10.570;2024-03-06T12:20:27;13.40;99.90
21312;DHT22;18076;52.154;10.570;2024-03-06T12:22:53;13.30;99.90
21312;DHT22;18076;52.154;10.570;2024-03-06T12:25:22;13.30;99.90
21312;DHT22;18076;52.154;10.570;2024-03-06T12:27:49;13.40;99.90
21312;DHT22;18076;52.154;10.570;2024-03-06T12:30:18;13.50;99.90
21312;DHT22;18076;52.154;10.570;2024-03-06T12:32:44;13.70;99.90
21312;DHT22;18076;52.154;10.570;2024-03-06T12:35:10;14.00;99.90
21312;DHT22;18076;52.154;10.570;2024-03-06T12:37:35;13.90;99.90
21312;DHT22;18076;52.154;10.570;2024-03-06T12:40:01;13.60;99.90
21312;DHT22;18076;52.154;10.570;2024-03-06T12:42:29;13.30;99.90
21312;DHT22;18076;52.154;10.570;2024-03-06T12:44:55;13.10;99.90
21312;DHT22;18076;52.154;10.570;2024-03-06T12:47:20;13.20;99.90
21312;DHT22;18076;52.154;10.570;2024-03-06T12:49:46;13.40;99.90
21312;DHT22;18076;52.154;10.570;2024-03-06T12:52:12;13.70;99.90
21312;DHT22;18076;52.154;10.570;2024-03-06T12:54:37;13.80;99.90
21312;DHT22;18076;52.154;10.570;2024-03-06T12:57:03;13.80;99.90
21312;DHT22;18076;52.154;10.570;2024-03-06T12:59:29;13.90;99.90
21312;DHT22;18076;52.154;10.570;2024-03-06T13:01:55;14.20;99.90
21312;DHT22;18076;52.154;10.570;2024-03-06T13:04:20;14.40;99.90
21312;DHT22;18076;52.154;10.570;2024-03-06T13:06:46;14.50;99.90
21312;DHT22;18076;52.154;10.570;2024-03-06T13:09:12;14.40;99.90
21312;DHT22;18076;52.154;10.570;2024-03-06T13:11:37;14.30;99.90
21312;DHT22;18076;52.154;10.570;2024-03-06T13:14:03;14.40;99.90
21312;DHT22;18076;52.154;10.570;2024-03-06T13:16:28;14.30;99.90
21312;DHT22;18076;52.154;10.570;2024-03-06T13:18:54;14.30;99.90
21312;DHT22;18076;52.154;10.570;2024-03-06T13:21:22;14.50;99.90
21312;DHT22;18076;52.154;10.570;2024-03-06T13:23:47;14.70;99.90
21312;DHT22;18076;52.154;10.570;2024-03-06T13:26:13;14.50;99.90
21312;DHT22;18076;52.154;10.570;2024-03-06T13:28:39;14.30;99.90
21312;DHT22;18076;52.154;10.570;2024-03-06T13:31:04;14.20;99.90
21312;DHT22;18076;52.154;10.570;2024-03-06T13:33:33;14.10;99.90
21312;DHT22;18076;52.154;10.570;2024-03-06T13:35:59;14.00;99.90
21312;DHT22;18076;52.154;10.570;2024-03-06T13:38:24;13.80;99.90
21312;DHT22;18076;52.154;10.570;2024-03-06T13:40:50;13.60;99.90
21312;DHT22;18076;52.154;10.570;2024-03-06T13:43:15;13.30;99.90
21312;DHT22;18076;52.154;10.570;2024-03-06T13:45:50;13.10;99.90
21312;DHT22;18076;52.154;10.570;2024-03-06T13:48:16;12.80;99.90
21312;DHT22;18076;52.154;10.570;2024-03-06T13:50:42;12.70;99.90
21312;DHT22;18076;52.154;10.570;2024-03-06T13:53:08;12.60;99.90
21312;DHT22;18076;52.154;10.570;2024-03-06T13:55:34;12.60;99.90
21312;DHT22;18076;52.154;10.570;2024-03-06T13:58:00;12.60;99.90
21312;DHT22;18076;52.154;10.570;2024-03-06T14:00:25;12.50;99.90
21312;DHT22;18076;52.154;10.570;2024-03-06T14:02:51;12.40;99.90
21312;DHT22;18076;52.154;10.570;2024-03-06T14:05:16;12.20;99.90
21312;DHT22;18076;52.154;10.570;2024-03-06T14:07:42;12.00;99.90
21312;DHT22;18076;52.154;10.570;2024-03-06T14:10:07;11.80;99.90
21312;DHT22;18076;52.154;10.570;2024-03-06T14:12:38;11.60;99.90
21312;DHT22;18076;52.154;10.570;2024-03-06T14:15:05;11.50;99.90
21312;DHT22;18076;52.154;10.570;2024-03-06T14:17:30;11.60;99.90
21312;DHT22;18076;52.154;10.570;2024-03-06T14:19:56;11.70;99.90
21312;DHT22;18076;52.154;10.570;2024-03-06T14:22:22;11.90;99.90
21312;DHT22;18076;52.154;10.570;2024-03-06T14:24:47;12.30;99.90
21312;DHT22;18076;52.154;10.570;2024-03-06T14:27:13;12.50;99.90
21312;DHT22;18076;52.154;10.570;2024-03-06T14:29:38;12.50;99.90
21312;DHT22;18076;52.154;10.570;2024-03-06T14:32:04;12.70;99.90
21312;DHT22;18076;52.154;10.570;2024-03-06T14:34:30;12.90;99.90
21312;DHT22;18076;52.154;10.570;2024-03-06T14:36:56;13.10;99.90
21312;DHT22;18076;52.154;10.570;2024-03-06T14:39:21;13.20;99.90
21312;DHT22;18076;52.154;10.570;2024-03-06T14:41:48;12.90;99.90
21312;DHT22;18076;52.154;10.570;2024-03-06T14:44:14;12.60;99.90
21312;DHT22;18076;52.154;10.570;2024-03-06T14:46:40;12.40;99.90
21312;DHT22;18076;52.154;10.570;2024-03-06T14:49:06;12.50;99.90
21312;DHT22;18076;52.154;10.570;2024-03-06T14:51:32;12.60;99.90
21312;DHT22;18076;52.154;10.570;2024-03-06T14:53:58;12.40;99.90
21312;DHT22;18076;52.154;10.570;2024-03-06T14:56:24;12.40;99.90
21312;DHT22;18076;52.154;10.570;2024-03-06T14:58:49;12.10;99.90
21312;DHT22;18076;52.154;10.570;2024-03-06T15:01:17;12.00;99.90
21312;DHT22;18076;52.154;10.570;2024-03-06T15:03:42;11.80;99.90
21312;DHT22;18076;52.154;10.570;2024-03-06T15:06:08;11.80;99.90
21312;DHT22;18076;52.154;10.570;2024-03-06T15:11:37;11.50;99.90
21312;DHT22;18076;52.154;10.570;2024-03-06T15:14:03;11.30;99.90
21312;DHT22;18076;52.154;10.570;2024-03-06T15:16:29;11.20;99.90
21312;DHT22;18076;52.154;10.570;2024-03-06T15:18:55;10.80;99.90
21312;DHT22;18076;52.154;10.570;2024-03-06T15:21:23;10.70;99.90
21312;DHT22;18076;52.154;10.570;2024-03-06T15:23:48;10.70;99.90
21312;DHT22;18076;52.154;10.570;2024-03-06T15:26:15;10.80;99.90
21312;DHT22;18076;52.154;10.570;2024-03-06T15:28:41;10.60;99.90
21312;DHT22;18076;52.154;10.570;2024-03-06T15:31:09;10.50;99.90
21312;DHT22;18076;52.154;10.570;2024-03-06T15:33:35;10.40;99.90
21312;DHT22;18076;52.154;10.570;2024-03-06T15:36:00;10.30;99.90
21312;DHT22;18076;52.154;10.570;2024-03-06T15:38:26;10.40;99.90
21312;DHT22;18076;52.154;10.570;2024-03-06T15:40:55;10.30;99.90
21312;DHT22;18076;52.154;10.570;2024-03-06T15:43:20;10.30;99.90
21312;DHT22;18076;52.154;10.570;2024-03-06T15:45:46;10.40;99.90
21312;DHT22;18076;52.154;10.570;2024-03-06T15:48:11;10.30;99.90
21312;DHT22;18076;52.154;10.570;2024-03-06T15:50:40;10.20;99.90
21312;DHT22;18076;52.154;10.570;2024-03-06T15:53:07;10.10;99.90
21312;DHT22;18076;52.154;10.570;2024-03-06T15:55:33;10.00;99.90
21312;DHT22;18076;52.154;10.570;2024-03-06T15:58:00;10.00;99.90
21312;DHT22;18076;52.154;10.570;2024-03-06T16:00:26;10.00;99.90
21312;DHT22;18076;52.154;10.570;2024-03-06T16:02:52;10.00;99.90
21312;DHT22;18076;52.154;10.570;2024-03-06T16:05:18;9.90;99.90
21312;DHT22;18076;52.154;10.570;2024-03-06T16:07:44;9.70;99.90
21312;DHT22;18076;52.154;10.570;2024-03-06T16:10:09;9.60;99.90
21312;DHT22;18076;52.154;10.570;2024-03-06T16:12:36;9.50;99.90
21312;DHT22;18076;52.154;10.570;2024-03-06T16:15:01;9.30;99.90
21312;DHT22;18076;52.154;10.570;2024-03-06T16:17:27;9.30;99.90
21312;DHT22;18076;52.154;10.570;2024-03-06T16:19:53;9.10;99.90
21312;DHT22;18076;52.154;10.570;2024-03-06T16:22:18;9.00;99.90
21312;DHT22;18076;52.154;10.570;2024-03-06T16:24:44;9.00;99.90
21312;DHT22;18076;52.154;10.570;2024-03-06T16:27:10;8.80;99.90
21312;DHT22;18076;52.154;10.570;2024-03-06T16:29:35;8.80;99.90
21312;DHT22;18076;52.154;10.570;2024-03-06T16:32:01;8.60;99.90
21312;DHT22;18076;52.154;10.570;2024-03-06T16:34:27;8.50;99.90
21312;DHT22;18076;52.154;10.570;2024-03-06T16:36:54;8.40;99.90
21312;DHT22;18076;52.154;10.570;2024-03-06T16:39:20;8.30;99.90
21312;DHT22;18076;52.154;10.570;2024-03-06T16:41:45;8.20;99.90
21312;DHT22;18076;52.154;10.570;2024-03-06T16:44:11;8.20;99.90
21312;DHT22;18076;52.154;10.570;2024-03-06T16:46:37;8.10;99.90
21312;DHT22;18076;52.154;10.570;2024-03-06T16:49:03;8.00;99.90
21312;DHT22;18076;52.154;10.570;2024-03-06T16:51:29;8.00;99.90
21312;DHT22;18076;52.154;10.570;2024-03-06T16:53:56;7.90;99.90
21312;DHT22;18076;52.154;10.570;2024-03-06T16:56:22;7.80;99.90
21312;DHT22;18076;52.154;10.570;2024-03-06T16:58:48;7.70;99.90
21312;DHT22;18076;52.154;10.570;2024-03-06T17:01:13;7.60;99.90
21312;DHT22;18076;52.154;10.570;2024-03-06T17:03:39;7.50;99.90
21312;DHT22;18076;52.154;10.570;2024-03-06T17:06:05;7.40;99.90
21312;DHT22;18076;52.154;10.570;2024-03-06T17:08:31;7.30;99.90
21312;DHT22;18076;52.154;10.570;2024-03-06T17:10:56;7.20;99.90
21312;DHT22;18076;52.154;10.570;2024-03-06T17:13:22;7.20;99.90
21312;DHT22;18076;52.154;10.570;2024-03-06T17:15:47;7.10;99.90
21312;DHT22;18076;52.154;10.570;2024-03-06T17:18:30;7.00;99.90
21312;DHT22;18076;52.154;10.570;2024-03-06T17:20:55;7.00;99.90
21312;DHT22;18076;52.154;10.570;2024-03-06T17:23:21;7.00;99.90
21312;DHT22;18076;52.154;10.570;2024-03-06T17:25:47;6.90;99.90
21312;DHT22;18076;52.154;10.570;2024-03-06T17:28:12;6.80;99.90
21312;DHT22;18076;52.154;10.570;2024-03-06T17:30:38;6.80;99.90
21312;DHT22;18076;52.154;10.570;2024-03-06T17:33:03;6.70;99.90
21312;DHT22;18076;52.154;10.570;2024-03-06T17:35:29;6.60;99.90
21312;DHT22;18076;52.154;10.570;2024-03-06T17:37:54;6.60;99.90
21312;DHT22;18076;52.154;10.570;2024-03-06T17:40:20;6.60;99.90
21312;DHT22;18076;52.154;10.570;2024-03-06T17:42:45;6.60;99.90
21312;DHT22;18076;52.154;10.570;2024-03-06T17:45:11;6.50;99.90
21312;DHT22;18076;52.154;10.570;2024-03-06T17:47:36;6.50;99.90
21312;DHT22;18076;52.154;10.570;2024-03-06T17:50:05;6.40;99.90
21312;DHT22;18076;52.154;10.570;2024-03-06T17:52:31;6.40;99.90
21312;DHT22;18076;52.154;10.570;2024-03-06T17:54:57;6.40;99.90
21312;DHT22;18076;52.154;10.570;2024-03-06T17:57:23;6.30;99.90
21312;DHT22;18076;52.154;10.570;2024-03-06T17:59:49;6.30;99.90
21312;DHT22;18076;52.154;10.570;2024-03-06T18:02:15;6.30;99.90
21312;DHT22;18076;52.154;10.570;2024-03-06T18:04:41;6.20;99.90
21312;DHT22;18076;52.154;10.570;2024-03-06T18:07:06;6.10;99.90
21312;DHT22;18076;52.154;10.570;2024-03-06T18:09:33;6.00;99.90
21312;DHT22;18076;52.154;10.570;2024-03-06T18:11:58;6.00;99.90
21312;DHT22;18076;52.154;10.570;2024-03-06T18:14:24;5.90;99.90
21312;DHT22;18076;52.154;10.570;2024-03-06T18:19:42;5.80;99.90
21312;DHT22;18076;52.154;10.570;2024-03-06T18:22:08;5.80;99.90
21312;DHT22;18076;52.154;10.570;2024-03-06T18:24:33;5.70;99.90
21312;DHT22;18076;52.154;10.570;2024-03-06T18:26:59;5.80;99.90
21312;DHT22;18076;52.154;10.570;2024-03-06T18:29:24;5.70;99.90
21312;DHT22;18076;52.154;10.570;2024-03-06T18:31:50;5.60;99.90
21312;DHT22;18076;52.154;10.570;2024-03-06T18:34:16;5.50;99.90
21312;DHT22;18076;52.154;10.570;2024-03-06T18:36:42;5.40;99.90
21312;DHT22;18076;52.154;10.570;2024-03-06T18:39:07;5.50;99.90
21312;DHT22;18076;52.154;10.570;2024-03-06T18:41:34;5.60;99.90
21312;DHT22;18076;52.154;10.570;2024-03-06T18:43:59;5.60;99.90
21312;DHT22;18076;52.154;10.570;2024-03-06T18:46:25;5.60;99.90
21312;DHT22;18076;52.154;10.570;2024-03-06T18:48:51;5.60;99.90
21312;DHT22;18076;52.154;10.570;2024-03-06T18:51:16;5.60;99.90
21312;DHT22;18076;52.154;10.570;2024-03-06T18:53:44;5.60;99.90
21312;DHT22;18076;52.154;10.570;2024-03-06T18:56:09;5.50;99.90
21312;DHT22;18076;52.154;10.570;2024-03-06T18:58:36;5.50;99.90
21312;DHT22;18076;52.154;10.570;2024-03-06T19:01:05;5.50;99.90
21312;DHT22;18076;52.154;10.570;2024-03-06T19:03:36;5.40;99.90
21312;DHT22;18076;52.154;10.570;2024-03-06T19:06:12;5.40;99.90
21312;DHT22;18076;52.154;10.570;2024-03-06T19:08:37;5.40;99.90
21312;DHT22;18076;52.154;10.570;2024-03-06T19:11:03;5.40;99.90
21312;DHT22;18076;52.154;10.570;2024-03-06T19:13:29;5.30;99.90
21312;DHT22;18076;52.154;10.570;2024-03-06T19:15:59;5.40;99.90
21312;DHT22;18076;52.154;10.570;2024-03-06T19:18:27;5.40;99.90
21312;DHT22;18076;52.154;10.570;2024-03-06T19:20:53;5.40;99.90
21312;DHT22;18076;52.154;10.570;2024-03-06T19:23:18;5.40;99.90
21312;DHT22;18076;52.154;10.570;2024-03-06T19:25:44;5.50;99.90
21312;DHT22;18076;52.154;10.570;2024-03-06T19:28:12;5.50;99.90
21312;DHT22;18076;52.154;10.570;2024-03-06T19:30:38;5.50;99.90
21312;DHT22;18076;52.154;10.570;2024-03-06T19:33:03;5.60;99.90
21312;DHT22;18076;52.154;10.570;2024-03-06T19:35:29;5.60;99.90
21312;DHT22;18076;52.154;10.570;2024-03-06T19:37:57;5.60;99.90
21312;DHT22;18076;52.154;10.570;2024-03-06T19:40:23;5.70;99.90
21312;DHT22;18076;52.154;10.570;2024-03-06T19:42:49;5.70;99.90
21312;DHT22;18076;52.154;10.570;2024-03-06T19:45:15;5.80;99.90
21312;DHT22;18076;52.154;10.570;2024-03-06T19:47:40;5.80;99.90
21312;DHT22;18076;52.154;10.570;2024-03-06T19:50:06;5.80;99.90
21312;DHT22;18076;52.154;10.570;2024-03-06T19:52:33;5.80;99.90
21312;DHT22;18076;52.154;10.570;2024-03-06T19:54:59;5.80;99.90
21312;DHT22;18076;52.154;10.570;2024-03-06T19:57:24;5.70;99.90
21312;DHT22;18076;52.154;10.570;2024-03-06T19:59:50;5.60;99.90
21312;DHT22;18076;52.154;10.570;2024-03-06T20:02:16;5.60;99.90
21312;DHT22;18076;52.154;10.570;2024-03-06T20:04:43;5.50;99.90
21312;DHT22;18076;52.154;10.570;2024-03-06T20:07:10;5.50;99.90
21312;DHT22;18076;52.154;10.570;2024-03-06T20:09:36;5.40;99.90
21312;DHT22;18076;52.154;10.570;2024-03-06T20:12:02;5.30;99.90
21312;DHT22;18076;52.154;10.570;2024-03-06T20:14:27;5.10;99.90
21312;DHT22;18076;52.154;10.570;2024-03-06T20:16:53;5.10;99.90
21312;DHT22;18076;52.154;10.570;2024-03-06T20:19:19;5.00;99.90
21312;DHT22;18076;52.154;10.570;2024-03-06T20:21:44;5.00;99.90
21312;DHT22;18076;52.154;10.570;2024-03-06T20:24:13;4.90;99.90
21312;DHT22;18076;52.154;10.570;2024-03-06T20:26:39;4.90;99.90
21312;DHT22;18076;52.154;10.570;2024-03-06T20:29:06;4.80;99.90
21312;DHT22;18076;52.154;10.570;2024-03-06T20:31:32;4.70;99.90
21312;DHT22;18076;52.154;10.570;2024-03-06T20:33:58;4.60;99.90
21312;DHT22;18076;52.154;10.570;2024-03-06T20:36:24;4.60;99.90
21312;DHT22;18076;52.154;10.570;2024-03-06T20:38:49;4.60;99.90
21312;DHT22;18076;52.154;10.570;2024-03-06T20:41:15;4.60;99.90
21312;DHT22;18076;52.154;10.570;2024-03-06T20:43:41;4.50;99.90
21312;DHT22;18076;52.154;10.570;2024-03-06T20:46:07;4.50;99.90
21312;DHT22;18076;52.154;10.570;2024-03-06T20:48:36;4.40;99.90
21312;DHT22;18076;52.154;10.570;2024-03-06T20:51:03;4.40;99.90
21312;DHT22;18076;52.154;10.570;2024-03-06T20:53:28;4.30;99.90
21312;DHT22;18076;52.154;10.570;2024-03-06T20:55:54;4.30;99.90
21312;DHT22;18076;52.154;10.570;2024-03-06T20:58:20;4.30;99.90
21312;DHT22;18076;52.154;10.570;2024-03-06T21:00:45;4.30;99.90
21312;DHT22;18076;52.154;10.570;2024-03-06T21:03:11;4.30;99.90
21312;DHT22;18076;52.154;10.570;2024-03-06T21:05:37;4.30;99.90
21312;DHT22;18076;52.154;10.570;2024-03-06T21:08:03;4.20;99.90
21312;DHT22;18076;52.154;10.570;2024-03-06T21:10:32;4.20;99.90
21312;DHT22;18076;52.154;10.570;2024-03-06T21:12:57;4.20;99.90
21312;DHT22;18076;52.154;10.570;2024-03-06T21:15:24;4.20;99.90
21312;DHT22;18076;52.154;10.570;2024-03-06T21:17:50;4.20;99.90
21312;DHT22;18076;52.154;10.570;2024-03-06T21:20:15;4.10;99.90
21312;DHT22;18076;52.154;10.570;2024-03-06T21:22:41;4.10;99.90
21312;DHT22;18076;52.154;10.570;2024-03-06T21:25:07;4.00;99.90
21312;DHT22;18076;52.154;10.570;2024-03-06T21:27:34;3.90;99.90
21312;DHT22;18076;52.154;10.570;2024-03-06T21:30:00;3.90;99.90
21312;DHT22;18076;52.154;10.570;2024-03-06T21:32:25;3.80;99.90
21312;DHT22;18076;52.154;10.570;2024-03-06T21:34:51;3.80;99.90
21312;DHT22;18076;52.154;10.570;2024-03-06T21:37:17;3.70;99.90
21312;DHT22;18076;52.154;10.570;2024-03-06T21:39:42;3.70;99.90
21312;DHT22;18076;52.154;10.570;2024-03-06T21:42:08;3.60;99.90
21312;DHT22;18076;52.154;10.570;2024-03-06T21:44:33;3.60;99.90
21312;DHT22;18076;52.154;10.570;2024-03-06T21:46:59;3.60;99.90
21312;DHT22;18076;52.154;10.570;2024-03-06T21:49:25;3.50;99.90
21312;DHT22;18076;52.154;10.570;2024-03-06T21:51:56;3.50;99.90
21312;DHT22;18076;52.154;10.570;2024-03-06T21:54:21;3.50;99.90
21312;DHT22;18076;52.154;10.570;2024-03-06T21:56:47;3.40;99.90
21312;DHT22;18076;52.154;10.570;2024-03-06T21:59:13;3.30;99.90
21312;DHT22;18076;52.154;10.570;2024-03-06T22:01:41;3.30;99.90
21312;DHT22;18076;52.154;10.570;2024-03-06T22:04:06;3.20;99.90
21312;DHT22;18076;52.154;10.570;2024-03-06T22:06:33;3.10;99.90
21312;DHT22;18076;52.154;10.570;2024-03-06T22:09:03;3.00;99.90
21312;DHT22;18076;52.154;10.570;2024-03-06T22:11:28;3.00;99.90
21312;DHT22;18076;52.154;10.570;2024-03-06T22:13:54;3.00;99.90
21312;DHT22;18076;52.154;10.570;2024-03-06T22:16:20;2.90;99.90
21312;DHT22;18076;52.154;10.570;2024-03-06T22:18:46;2.90;99.90
21312;DHT22;18076;52.154;10.570;2024-03-06T22:21:11;2.90;99.90
21312;DHT22;18076;52.154;10.570;2024-03-06T22:23:39;3.00;99.90
21312;DHT22;18076;52.154;10.570;2024-03-06T22:26:05;3.00;99.90
21312;DHT22;18076;52.154;10.570;2024-03-06T22:28:31;3.00;99.90
21312;DHT22;18076;52.154;10.570;2024-03-06T22:30:57;3.00;99.90
21312;DHT22;18076;52.154;10.570;2024-03-06T22:33:23;3.10;99.90
21312;DHT22;18076;52.154;10.570;2024-03-06T22:35:48;3.10;99.90
21312;DHT22;18076;52.154;10.570;2024-03-06T22:38:14;3.10;99.90
21312;DHT22;18076;52.154;10.570;2024-03-06T22:40:47;3.10;99.90
21312;DHT22;18076;52.154;10.570;2024-03-06T22:43:14;3.10;99.90
21312;DHT22;18076;52.154;10.570;2024-03-06T22:45:40;3.10;99.90
21312;DHT22;18076;52.154;10.570;2024-03-06T22:48:05;3.10;99.90
21312;DHT22;18076;52.154;10.570;2024-03-06T22:50:42;3.10;99.90
21312;DHT22;18076;52.154;10.570;2024-03-06T22:53:08;3.10;99.90
21312;DHT22;18076;52.154;10.570;2024-03-06T22:55:33;3.10;99.90
21312;DHT22;18076;52.154;10.570;2024-03-06T22:57:59;3.00;99.90
21312;DHT22;18076;52.154;10.570;2024-03-06T23:00:25;3.00;99.90
21312;DHT22;18076;52.154;10.570;2024-03-06T23:02:56;3.10;99.90
21312;DHT22;18076;52.154;10.570;2024-03-06T23:05:22;3.00;99.90
21312;DHT22;18076;52.154;10.570;2024-03-06T23:07:48;3.00;99.90
21312;DHT22;18076;52.154;10.570;2024-03-06T23:10:13;3.10;99.90
21312;DHT22;18076;52.154;10.570;2024-03-06T23:12:41;3.10;99.90
21312;DHT22;18076;52.154;10.570;2024-03-06T23:15:08;3.10;99.90
21312;DHT22;18076;52.154;10.570;2024-03-06T23:17:33;3.00;99.90
21312;DHT22;18076;52.154;10.570;2024-03-06T23:20:05;3.00;99.90
21312;DHT22;18076;52.154;10.570;2024-03-06T23:22:32;2.90;99.90
21312;DHT22;18076;52.154;10.570;2024-03-06T23:25:04;2.90;99.90
21312;DHT22;18076;52.154;10.570;2024-03-06T23:27:33;2.90;99.90
21312;DHT22;18076;52.154;10.570;2024-03-06T23:29:58;2.90;99.90
21312;DHT22;18076;52.154;10.570;2024-03-06T23:32:36;3.00;99.90
21312;DHT22;18076;52.154;10.570;2024-03-06T23:35:01;3.00;99.90
21312;DHT22;18076;52.154;10.570;2024-03-06T23:37:29;3.00;99.90
21312;DHT22;18076;52.154;10.570;2024-03-06T23:40:06;3.00;99.90
21312;DHT22;18076;52.154;10.570;2024-03-06T23:42:42;3.00;99.90
21312;DHT22;18076;52.154;10.570;2024-03-06T23:45:21;3.00;99.90
21312;DHT22;18076;52.154;10.570;2024-03-06T23:47:52;2.90;99.90